createdAt,value
2023-04-30T00:01:50.203Z,9.09
2023-04-30T00:04:18.388Z,9.09
2023-04-30T00:06:46.640Z,9.06
2023-04-30T00:09:14.702Z,9.01
2023-04-30T00:11:42.907Z,8.99
2023-04-30T00:14:11.084Z,8.95
2023-04-30T00:16:39.411Z,8.91
2023-04-30T00:19:08.654Z,8.87
2023-04-30T00:21:36.786Z,8.81
2023-04-30T00:24:05.368Z,8.75
2023-04-30T00:26:33.517Z,8.71
2023-04-30T00:29:01.560Z,8.69
2023-04-30T00:31:29.899Z,8.67
2023-04-30T00:33:58.464Z,8.63
2023-04-30T00:36:26.627Z,8.60
2023-04-30T00:38:54.737Z,8.58
2023-04-30T00:41:23.519Z,8.57
2023-04-30T00:43:51.603Z,8.54
2023-04-30T00:46:19.783Z,8.50
2023-04-30T00:48:49.146Z,8.45
2023-04-30T00:51:17.506Z,8.39
2023-04-30T00:53:46.410Z,8.34
2023-04-30T00:56:18.452Z,8.30
2023-04-30T00:58:46.657Z,8.26
2023-04-30T01:01:15.488Z,8.23
2023-04-30T01:03:43.959Z,8.20
2023-04-30T01:06:12.535Z,8.16
2023-04-30T01:08:40.928Z,8.13
2023-04-30T01:11:24.310Z,8.10
2023-04-30T01:14:08.431Z,8.07
2023-04-30T01:16:43.947Z,8.04
2023-04-30T01:19:36.882Z,8.01
2023-04-30T01:22:09.562Z,7.99
2023-04-30T01:24:59.227Z,7.95
2023-04-30T01:28:01.583Z,7.93
2023-04-30T01:30:31.990Z,7.91
2023-04-30T01:33:00.988Z,7.90
2023-04-30T01:35:38.819Z,7.89
2023-04-30T01:38:24.417Z,7.86
2023-04-30T01:41:05.527Z,7.85
2023-04-30T01:44:06.220Z,7.83
2023-04-30T01:46:35.249Z,7.81
2023-04-30T01:49:26.198Z,7.79
2023-04-30T01:52:04.092Z,7.76
2023-04-30T01:54:49.462Z,7.72
2023-04-30T01:57:39.462Z,7.72
2023-04-30T02:00:11.744Z,7.69
2023-04-30T02:02:43.200Z,7.66
2023-04-30T02:05:11.401Z,7.64
2023-04-30T02:07:40.680Z,7.67
2023-04-30T02:10:12.030Z,7.87
2023-04-30T02:12:41.106Z,8.09
2023-04-30T02:15:09.675Z,8.26
2023-04-30T02:17:37.874Z,8.39
2023-04-30T02:20:07.320Z,8.48
2023-04-30T02:22:36.612Z,8.57
2023-04-30T02:25:05.214Z,8.65
2023-04-30T02:27:33.929Z,8.73
2023-04-30T02:30:02.809Z,8.79
2023-04-30T02:32:30.965Z,8.86
2023-04-30T02:34:59.165Z,8.94
2023-04-30T02:37:27.250Z,8.99
2023-04-30T02:39:56.109Z,9.02
2023-04-30T02:42:24.515Z,9.05
2023-04-30T02:44:52.760Z,9.08
2023-04-30T02:47:21.066Z,9.11
2023-04-30T02:49:49.165Z,9.13
2023-04-30T02:52:17.539Z,9.15
2023-04-30T02:54:45.847Z,9.18
2023-04-30T02:57:14.175Z,9.16
2023-04-30T02:59:45.971Z,8.94
2023-04-30T03:02:14.515Z,8.67
2023-04-30T03:04:43.038Z,8.45
2023-04-30T03:07:11.729Z,8.28
2023-04-30T03:09:39.799Z,8.13
2023-04-30T03:12:08.334Z,8.00
2023-04-30T03:14:36.503Z,7.88
2023-04-30T03:17:04.615Z,7.79
2023-04-30T03:19:33.176Z,7.74
2023-04-30T03:22:01.469Z,7.88
2023-04-30T03:24:29.536Z,8.06
2023-04-30T03:26:57.891Z,8.18
2023-04-30T03:29:26.862Z,8.27
2023-04-30T03:31:55.030Z,8.34
2023-04-30T03:34:23.297Z,8.39
2023-04-30T03:36:51.402Z,8.44
2023-04-30T03:39:19.643Z,8.48
2023-04-30T03:41:47.700Z,8.52
2023-04-30T03:44:16.055Z,8.55
2023-04-30T03:46:45.023Z,8.57
2023-04-30T03:49:13.394Z,8.59
2023-04-30T03:51:42.143Z,8.63
2023-04-30T03:54:10.976Z,8.63
2023-04-30T03:56:39.384Z,8.64
2023-04-30T03:59:07.919Z,8.64
2023-04-30T04:01:36.211Z,8.64
2023-04-30T04:04:04.727Z,8.64
2023-04-30T04:06:33.878Z,8.65
2023-04-30T04:09:02.085Z,8.66
2023-04-30T04:11:30.434Z,8.66
2023-04-30T04:13:59.091Z,8.68
2023-04-30T04:16:27.265Z,8.70
2023-04-30T04:18:55.465Z,8.71
2023-04-30T04:21:23.583Z,8.73
2023-04-30T04:23:51.908Z,8.74
2023-04-30T04:26:21.824Z,8.74
2023-04-30T04:28:50.320Z,8.73
2023-04-30T04:31:18.550Z,8.73
2023-04-30T04:33:47.069Z,8.75
2023-04-30T04:36:16.382Z,8.77
2023-04-30T04:38:44.570Z,8.81
2023-04-30T04:41:13.031Z,8.86
2023-04-30T04:43:41.318Z,8.89
2023-04-30T04:46:12.994Z,8.92
2023-04-30T04:48:42.994Z,8.93
2023-04-30T04:51:11.286Z,8.92
2023-04-30T04:53:39.399Z,8.95
2023-04-30T04:56:07.731Z,8.97
2023-04-30T04:58:35.866Z,8.98
2023-04-30T05:01:05.773Z,9.00
2023-04-30T05:03:37.198Z,9.02
2023-04-30T05:06:05.830Z,9.04
2023-04-30T05:08:33.911Z,9.06
2023-04-30T05:11:02.075Z,9.06
2023-04-30T05:13:30.338Z,9.08
2023-04-30T05:15:58.435Z,9.11
2023-04-30T05:18:26.656Z,9.14
2023-04-30T05:20:54.925Z,9.18
2023-04-30T05:23:23.118Z,9.20
2023-04-30T05:25:55.146Z,9.21
2023-04-30T05:28:23.200Z,9.21
2023-04-30T05:30:51.955Z,9.22
2023-04-30T05:33:20.052Z,9.24
2023-04-30T05:35:48.101Z,9.28
2023-04-30T05:38:16.149Z,9.32
2023-04-30T05:40:44.383Z,9.32
2023-04-30T05:43:12.480Z,9.32
2023-04-30T05:45:40.619Z,9.34
2023-04-30T05:48:08.871Z,9.35
2023-04-30T05:50:36.998Z,9.36
2023-04-30T05:53:05.027Z,9.39
2023-04-30T05:55:34.011Z,9.42
2023-04-30T05:58:02.076Z,9.46
2023-04-30T06:00:30.098Z,9.47
2023-04-30T06:02:58.216Z,9.49
2023-04-30T06:05:26.521Z,9.53
2023-04-30T06:07:54.579Z,9.56
2023-04-30T06:10:23.032Z,9.57
2023-04-30T06:12:51.207Z,9.57
2023-04-30T06:15:19.357Z,9.59
2023-04-30T06:17:47.599Z,9.64
2023-04-30T06:20:16.255Z,9.68
2023-04-30T06:22:44.283Z,9.73
2023-04-30T06:25:12.402Z,9.75
2023-04-30T06:27:40.484Z,9.78
2023-04-30T06:30:09.111Z,9.81
2023-04-30T06:32:37.253Z,9.84
2023-04-30T06:35:05.912Z,9.88
2023-04-30T06:37:37.935Z,9.91
2023-04-30T06:40:07.428Z,9.95
2023-04-30T06:42:36.062Z,9.97
2023-04-30T06:45:06.720Z,10.03
2023-04-30T06:47:36.412Z,10.08
2023-04-30T06:50:05.498Z,10.11
2023-04-30T06:52:33.606Z,9.93
2023-04-30T06:55:02.531Z,9.71
2023-04-30T06:57:31.234Z,9.51
2023-04-30T07:00:00.018Z,9.37
2023-04-30T07:02:28.577Z,9.28
2023-04-30T07:04:58.322Z,9.22
2023-04-30T07:07:26.694Z,9.19
2023-04-30T07:09:55.224Z,9.18
2023-04-30T07:12:24.048Z,9.16
2023-04-30T07:14:52.182Z,9.15
2023-04-30T07:17:20.441Z,9.14
2023-04-30T07:19:48.826Z,9.11
2023-04-30T07:22:16.918Z,9.09
2023-04-30T07:24:45.128Z,9.07
2023-04-30T07:27:13.219Z,9.07
2023-04-30T07:29:41.302Z,9.08
2023-04-30T07:32:09.478Z,9.10
2023-04-30T07:34:38.392Z,9.13
2023-04-30T07:37:06.742Z,9.16
2023-04-30T07:39:35.046Z,9.19
2023-04-30T07:42:04.194Z,9.22
2023-04-30T07:44:32.680Z,9.24
2023-04-30T07:47:01.076Z,9.25
2023-04-30T07:49:29.255Z,9.27
2023-04-30T07:51:58.146Z,9.29
2023-04-30T07:54:26.846Z,9.31
2023-04-30T07:59:28.626Z,9.38
2023-04-30T08:01:56.806Z,9.42
2023-04-30T08:04:25.219Z,9.45
2023-04-30T08:06:53.514Z,9.48
2023-04-30T08:09:21.791Z,9.50
2023-04-30T08:11:50.382Z,9.53
2023-04-30T08:14:18.619Z,9.58
2023-04-30T08:16:46.681Z,9.61
2023-04-30T08:19:14.979Z,9.63
2023-04-30T08:21:43.174Z,9.64
2023-04-30T08:24:11.317Z,9.67
2023-04-30T08:26:39.441Z,9.72
2023-04-30T08:29:08.544Z,9.76
2023-04-30T08:31:37.314Z,9.79
2023-04-30T08:34:05.496Z,9.83
2023-04-30T08:36:34.061Z,9.87
2023-04-30T08:39:02.281Z,9.91
2023-04-30T08:41:36.223Z,9.94
2023-04-30T08:44:06.297Z,9.95
2023-04-30T08:46:37.838Z,9.99
2023-04-30T08:49:06.052Z,10.02
2023-04-30T08:51:35.303Z,10.07
2023-04-30T08:54:03.549Z,10.10
2023-04-30T08:56:33.668Z,10.12
2023-04-30T08:59:01.773Z,10.12
2023-04-30T09:01:31.110Z,10.13
2023-04-30T09:03:59.458Z,10.13
2023-04-30T09:06:27.682Z,10.16
2023-04-30T09:08:55.894Z,10.19
2023-04-30T09:11:31.758Z,10.23
2023-04-30T09:14:02.124Z,10.26
2023-04-30T09:16:45.191Z,10.30
2023-04-30T09:19:27.460Z,10.33
2023-04-30T09:21:56.498Z,10.35
2023-04-30T09:24:24.747Z,10.36
2023-04-30T09:26:54.016Z,10.37
2023-04-30T09:29:22.575Z,10.39
2023-04-30T09:31:51.029Z,10.43
2023-04-30T09:34:35.185Z,10.46
2023-04-30T09:37:04.258Z,10.49
2023-04-30T09:39:32.413Z,10.50
2023-04-30T09:42:11.157Z,10.52
2023-04-30T09:44:40.922Z,10.49
2023-04-30T09:47:20.524Z,10.47
2023-04-30T09:49:54.104Z,10.49
2023-04-30T09:52:22.672Z,10.54
2023-04-30T09:54:51.005Z,10.60
2023-04-30T09:57:23.100Z,10.65
2023-04-30T09:59:53.344Z,10.71
2023-04-30T10:02:24.043Z,10.75
2023-04-30T10:04:58.726Z,10.78
2023-04-30T10:07:33.485Z,10.81
2023-04-30T10:10:08.372Z,10.86
2023-04-30T10:13:00.372Z,10.87
2023-04-30T10:15:39.450Z,10.88
2023-04-30T10:18:15.055Z,10.89
2023-04-30T10:20:46.845Z,10.92
2023-04-30T10:23:15.430Z,10.92
2023-04-30T10:25:44.784Z,10.94
2023-04-30T10:28:13.395Z,10.98
2023-04-30T10:30:43.751Z,11.05
2023-04-30T10:33:29.200Z,11.13
2023-04-30T10:36:00.566Z,11.18
2023-04-30T10:38:30.841Z,11.20
2023-04-30T10:41:03.517Z,11.20
2023-04-30T10:43:31.979Z,11.22
2023-04-30T10:46:00.588Z,11.22
2023-04-30T10:48:31.244Z,11.23
2023-04-30T10:50:59.884Z,11.22
2023-04-30T10:53:31.456Z,11.22
2023-04-30T10:56:09.681Z,11.20
2023-04-30T10:58:39.828Z,11.21
2023-04-30T11:01:17.499Z,11.22
2023-04-30T11:04:25.288Z,11.23
2023-04-30T11:06:56.246Z,11.27
2023-04-30T11:09:39.174Z,11.32
2023-04-30T11:12:13.149Z,11.35
2023-04-30T11:14:44.220Z,11.37
2023-04-30T11:17:23.116Z,11.38
2023-04-30T11:19:53.258Z,11.38
2023-04-30T11:22:24.257Z,11.39
2023-04-30T11:25:15.942Z,11.41
2023-04-30T11:27:46.050Z,11.47
2023-04-30T11:30:16.663Z,11.53
2023-04-30T11:32:47.831Z,11.54
2023-04-30T11:35:19.231Z,11.53
2023-04-30T11:37:54.903Z,11.55
2023-04-30T11:40:24.033Z,11.58
2023-04-30T11:42:52.173Z,11.65
2023-04-30T11:45:21.125Z,11.71
2023-04-30T11:47:54.941Z,11.74
2023-04-30T11:50:29.430Z,11.76
2023-04-30T11:52:59.418Z,11.78
2023-04-30T11:55:28.502Z,11.79
2023-04-30T11:57:59.645Z,11.80
2023-04-30T12:00:30.120Z,11.81
2023-04-30T12:03:01.420Z,11.81
2023-04-30T12:05:30.141Z,11.81
2023-04-30T12:08:04.816Z,11.81
2023-04-30T12:10:33.345Z,11.84
2023-04-30T12:13:01.740Z,11.85
2023-04-30T12:15:30.177Z,11.86
2023-04-30T12:17:59.758Z,11.87
2023-04-30T12:20:29.682Z,11.89
2023-04-30T12:22:58.752Z,11.92
2023-04-30T12:25:29.515Z,11.95
2023-04-30T12:27:59.878Z,11.92
2023-04-30T12:30:28.052Z,11.91
2023-04-30T12:33:00.684Z,11.91
2023-04-30T12:35:31.760Z,11.91
2023-04-30T12:38:08.201Z,11.94
2023-04-30T12:40:37.300Z,11.97
2023-04-30T12:43:07.465Z,11.97
2023-04-30T12:45:53.431Z,11.98
2023-04-30T12:48:26.171Z,11.99
2023-04-30T12:51:01.554Z,12.00
2023-04-30T12:53:29.968Z,12.01
2023-04-30T12:56:27.735Z,12.02
2023-04-30T12:58:55.778Z,12.04
2023-04-30T13:01:25.428Z,12.09
2023-04-30T13:03:54.165Z,12.13
2023-04-30T13:06:23.728Z,12.15
2023-04-30T13:08:58.493Z,12.14
2023-04-30T13:11:27.991Z,12.11
2023-04-30T13:13:56.259Z,12.12
2023-04-30T13:16:25.687Z,12.13
2023-04-30T13:18:54.991Z,12.19
2023-04-30T13:21:25.058Z,12.23
2023-04-30T13:23:54.572Z,12.25
2023-04-30T13:26:24.079Z,12.26
2023-04-30T13:28:52.356Z,12.27
2023-04-30T13:31:20.657Z,12.29
2023-04-30T13:33:49.700Z,12.34
2023-04-30T13:36:18.039Z,12.39
2023-04-30T13:38:46.249Z,12.43
2023-04-30T13:41:14.570Z,12.51
2023-04-30T13:43:43.800Z,12.55
2023-04-30T13:46:12.404Z,12.58
2023-04-30T13:48:41.205Z,12.64
2023-04-30T13:51:09.664Z,12.70
2023-04-30T13:53:37.892Z,12.74
2023-04-30T13:56:07.017Z,12.79
2023-04-30T13:58:35.037Z,12.88
2023-04-30T14:01:03.653Z,12.98
2023-04-30T14:03:32.037Z,13.03
2023-04-30T14:06:00.376Z,13.13
2023-04-30T14:08:28.636Z,13.23
2023-04-30T14:10:57.424Z,13.36
2023-04-30T14:13:25.805Z,13.50
2023-04-30T14:15:54.863Z,13.61
2023-04-30T14:18:23.632Z,13.63
2023-04-30T14:20:51.854Z,13.67
2023-04-30T14:23:19.975Z,13.75
2023-04-30T14:25:48.379Z,13.89
2023-04-30T14:28:16.866Z,13.97
2023-04-30T14:30:45.086Z,14.01
2023-04-30T14:33:14.065Z,14.05
2023-04-30T14:35:42.452Z,14.11
2023-04-30T14:38:10.501Z,14.22
2023-04-30T14:40:38.609Z,14.30
2023-04-30T14:43:06.673Z,14.39
2023-04-30T14:45:35.037Z,14.48
2023-04-30T14:48:05.709Z,14.65
2023-04-30T14:50:34.222Z,14.83
2023-04-30T14:53:03.696Z,14.86
2023-04-30T14:55:33.277Z,14.87
2023-04-30T14:58:01.430Z,14.87
2023-04-30T15:00:29.774Z,14.94
2023-04-30T15:02:58.026Z,15.02
2023-04-30T15:05:26.837Z,15.06
2023-04-30T15:07:54.959Z,15.02
2023-04-30T15:10:23.174Z,14.93
2023-04-30T15:12:51.570Z,14.80
2023-04-30T15:15:21.363Z,14.68
2023-04-30T15:17:49.689Z,14.57
2023-04-30T15:20:17.899Z,14.51
2023-04-30T15:22:46.069Z,14.43
2023-04-30T15:25:14.186Z,14.34
2023-04-30T15:27:42.380Z,14.25
2023-04-30T15:30:11.378Z,14.24
2023-04-30T15:32:39.647Z,14.30
2023-04-30T15:35:08.839Z,14.40
2023-04-30T15:37:37.050Z,14.47
2023-04-30T15:40:05.761Z,14.49
2023-04-30T15:42:34.834Z,14.43
2023-04-30T15:45:03.961Z,14.36
2023-04-30T15:47:32.427Z,14.37
2023-04-30T15:50:00.977Z,14.39
2023-04-30T15:52:29.174Z,14.35
2023-04-30T15:54:57.261Z,14.36
2023-04-30T15:57:25.426Z,14.45
2023-04-30T15:59:53.640Z,14.61
2023-04-30T16:02:22.026Z,14.77
2023-04-30T16:04:50.139Z,14.88
2023-04-30T16:07:18.441Z,14.94
2023-04-30T16:09:49.151Z,14.96
2023-04-30T16:12:17.260Z,14.93
2023-04-30T16:14:45.461Z,14.92
2023-04-30T16:17:14.014Z,14.90
2023-04-30T16:19:42.172Z,14.86
2023-04-30T16:22:10.339Z,14.77
2023-04-30T16:24:38.653Z,14.72
2023-04-30T16:27:07.395Z,14.65
2023-04-30T16:29:35.413Z,14.57
2023-04-30T16:32:03.936Z,14.52
2023-04-30T16:34:32.218Z,14.50
2023-04-30T16:37:00.596Z,14.47
2023-04-30T16:39:28.790Z,14.44
2023-04-30T16:41:56.882Z,14.41
2023-04-30T16:44:24.968Z,14.35
2023-04-30T16:46:53.321Z,14.31
2023-04-30T16:49:22.565Z,14.30
2023-04-30T16:51:51.179Z,14.26
2023-04-30T16:54:19.286Z,14.19
2023-04-30T16:56:47.311Z,14.14
2023-04-30T16:59:15.499Z,14.10
2023-04-30T17:01:43.846Z,14.04
2023-04-30T17:04:12.597Z,13.94
2023-04-30T17:06:41.328Z,13.82
2023-04-30T17:09:09.580Z,13.68
2023-04-30T17:11:37.676Z,13.58
2023-04-30T17:14:05.778Z,13.50
2023-04-30T17:16:34.307Z,13.46
2023-04-30T17:19:02.398Z,13.42
2023-04-30T17:21:30.506Z,13.34
2023-04-30T17:23:59.080Z,13.20
2023-04-30T17:26:27.259Z,13.03
2023-04-30T17:28:55.562Z,12.89
2023-04-30T17:31:24.393Z,12.80
2023-04-30T17:33:52.730Z,12.72
2023-04-30T17:36:20.804Z,12.61
2023-04-30T17:38:48.920Z,12.51
2023-04-30T17:41:18.723Z,12.39
2023-04-30T17:43:46.807Z,12.26
2023-04-30T17:46:15.072Z,12.17
2023-04-30T17:48:43.993Z,12.04
2023-04-30T17:51:12.158Z,11.93
2023-04-30T17:53:41.279Z,11.83
2023-04-30T17:56:09.875Z,11.72
2023-04-30T17:58:40.075Z,11.61
2023-04-30T18:01:08.887Z,11.52
2023-04-30T18:03:37.039Z,11.44
2023-04-30T18:06:05.321Z,11.32
2023-04-30T18:08:33.632Z,11.22
2023-04-30T18:11:03.499Z,11.13
2023-04-30T18:13:31.959Z,11.05
2023-04-30T18:16:01.284Z,10.97
2023-04-30T18:18:29.343Z,10.89
2023-04-30T18:20:57.454Z,10.83
2023-04-30T18:23:25.757Z,10.76
2023-04-30T18:25:54.017Z,10.70
2023-04-30T18:28:22.163Z,10.64
2023-04-30T18:30:50.657Z,10.57
2023-04-30T18:33:19.485Z,10.51
2023-04-30T18:35:50.680Z,10.47
2023-04-30T18:38:18.964Z,10.44
2023-04-30T18:40:47.192Z,10.39
2023-04-30T18:43:16.884Z,10.35
2023-04-30T18:45:45.118Z,10.30
2023-04-30T18:48:15.233Z,10.25
2023-04-30T18:50:43.587Z,10.21
2023-04-30T18:53:12.831Z,10.16
2023-04-30T18:55:41.416Z,10.14
2023-04-30T18:58:09.590Z,10.10
2023-04-30T19:00:39.499Z,10.08
2023-04-30T19:03:07.742Z,10.06
2023-04-30T19:05:36.409Z,10.03
2023-04-30T19:08:04.748Z,10.01
2023-04-30T19:10:34.878Z,9.99
2023-04-30T19:13:03.057Z,9.96
2023-04-30T19:15:31.748Z,9.94
2023-04-30T19:17:59.856Z,9.93
2023-04-30T19:20:28.001Z,9.93
2023-04-30T19:22:56.237Z,9.92
2023-04-30T19:25:24.367Z,9.89
2023-04-30T19:27:52.426Z,9.84
2023-04-30T19:30:20.875Z,9.83
2023-04-30T19:32:49.002Z,9.80
2023-04-30T19:35:17.399Z,9.77
2023-04-30T19:37:45.710Z,9.73
2023-04-30T19:40:14.746Z,9.68
2023-04-30T19:42:42.804Z,9.62
2023-04-30T19:45:11.375Z,9.57
2023-04-30T19:47:39.734Z,9.52
2023-04-30T19:50:08.797Z,9.49
2023-04-30T19:52:37.398Z,9.45
2023-04-30T19:55:05.656Z,9.41
2023-04-30T19:57:36.387Z,9.38
2023-04-30T20:00:06.305Z,9.34
2023-04-30T20:02:37.147Z,9.29
2023-04-30T20:05:07.133Z,9.24
2023-04-30T20:07:35.895Z,9.19
2023-04-30T20:10:04.389Z,9.14
2023-04-30T20:12:32.676Z,9.09
2023-04-30T20:15:01.230Z,9.05
2023-04-30T20:17:29.386Z,9.00
2023-04-30T20:19:57.939Z,8.95
2023-04-30T20:22:27.847Z,8.90
2023-04-30T20:24:56.572Z,8.87
2023-04-30T20:27:25.759Z,8.83
2023-04-30T20:29:54.636Z,8.79
2023-04-30T20:32:23.049Z,8.76
2023-04-30T20:34:52.318Z,8.72
2023-04-30T20:37:20.494Z,8.67
2023-04-30T20:39:48.820Z,8.63
2023-04-30T20:42:17.956Z,8.58
2023-04-30T20:44:47.494Z,8.54
2023-04-30T20:47:15.706Z,8.51
2023-04-30T20:49:44.017Z,8.49
2023-04-30T20:52:13.658Z,8.47
2023-04-30T20:54:41.968Z,8.44
2023-04-30T20:57:10.693Z,8.40
2023-04-30T20:59:38.898Z,8.37
2023-04-30T21:02:07.712Z,8.35
2023-04-30T21:04:36.659Z,8.33
2023-04-30T21:07:05.904Z,8.30
2023-04-30T21:09:35.723Z,8.27
2023-04-30T21:12:05.486Z,8.24
2023-04-30T21:14:34.285Z,8.23
2023-04-30T21:17:02.647Z,8.20
2023-04-30T21:19:31.633Z,8.18
2023-04-30T21:21:59.939Z,8.14
2023-04-30T21:24:31.202Z,8.10
2023-04-30T21:27:00.400Z,8.08
2023-04-30T21:29:28.749Z,8.05
2023-04-30T21:31:57.139Z,8.01
2023-04-30T21:34:25.185Z,7.99
2023-04-30T21:36:53.365Z,7.97
2023-04-30T21:39:22.156Z,7.93
2023-04-30T21:41:50.562Z,7.92
2023-04-30T21:44:19.865Z,7.90
2023-04-30T21:46:48.248Z,7.87
2023-04-30T21:49:16.991Z,7.85
2023-04-30T21:51:45.118Z,7.83
2023-04-30T21:54:13.178Z,7.81
2023-04-30T21:56:41.317Z,7.78
2023-04-30T21:59:09.502Z,7.76
2023-04-30T22:01:38.426Z,7.74
2023-04-30T22:04:06.648Z,7.73
2023-04-30T22:06:35.326Z,7.71
2023-04-30T22:09:04.669Z,7.69
2023-04-30T22:11:32.953Z,7.69
2023-04-30T22:14:01.331Z,7.69
2023-04-30T22:16:29.646Z,7.68
2023-04-30T22:18:59.154Z,7.68
2023-04-30T22:21:27.580Z,7.67
2023-04-30T22:23:55.782Z,7.67
2023-04-30T22:26:25.454Z,7.67
2023-04-30T22:28:53.767Z,7.64
2023-04-30T22:31:21.996Z,7.62
2023-04-30T22:33:50.283Z,7.61
2023-04-30T22:36:18.718Z,7.61
2023-04-30T22:38:46.842Z,7.59
2023-04-30T22:41:15.011Z,7.57
2023-04-30T22:43:46.698Z,7.54
2023-04-30T22:46:15.641Z,7.53
2023-04-30T22:48:44.636Z,7.50
2023-04-30T22:51:12.934Z,7.51
2023-04-30T22:53:41.067Z,7.50
2023-04-30T22:56:10.193Z,7.49
2023-04-30T22:58:38.337Z,7.48
2023-04-30T23:01:06.458Z,7.47
2023-04-30T23:03:35.664Z,7.47
2023-04-30T23:06:04.192Z,7.48
2023-04-30T23:08:32.360Z,7.48
2023-04-30T23:11:01.650Z,7.49
2023-04-30T23:13:29.828Z,7.48
2023-04-30T23:16:05.804Z,7.46
2023-04-30T23:18:34.591Z,7.44
2023-04-30T23:21:03.711Z,7.44
2023-04-30T23:23:32.575Z,7.42
2023-04-30T23:26:01.347Z,7.41
2023-04-30T23:28:29.413Z,7.39
2023-04-30T23:31:00.459Z,7.38
2023-04-30T23:33:28.691Z,7.38
2023-04-30T23:35:56.997Z,7.39
2023-04-30T23:38:25.638Z,7.39
2023-04-30T23:40:56.583Z,7.37
2023-04-30T23:43:25.379Z,7.35
2023-04-30T23:45:53.603Z,7.33
2023-04-30T23:48:21.758Z,7.31
2023-04-30T23:51:04.064Z,7.30
2023-04-30T23:53:32.571Z,7.27
2023-04-30T23:56:00.979Z,7.25
2023-04-30T23:58:32.483Z,7.22
